Sign-in with your pilot id or email, or register

ICAO: NZAA Name / Country: Auckland / New Zealand
Latitude: 37.0029 Longitude: 174.473
Total Arrivals:
Strict Standards: Non-static method AirportData::getarrflights() should not be called statically, assuming $this from incompatible context in /var/www/customers/vh-7192/web/home/phpvms/core/templates/airport_info.tpl on line 18
1
Total Departures:
Strict Standards: Non-static method AirportData::getdeptflights() should not be called statically, assuming $this from incompatible context in /var/www/customers/vh-7192/web/home/phpvms/core/templates/airport_info.tpl on line 21
1
Latest Arrival: MTA5PM (YSSY-NZAA) Tibor Berces Latest Departure: MTA5PM (NZAA-NWWW) Tibor Berces
Metar: NZAA 221500Z AUTO 05002KT 9999 NCD 14/14 Q1023 NOSIG
More info

Charts for NZAA


NOTAM


Warning: file_get_contents(http://api.vateud.net/notams/NZAA.json): failed to open stream: Redirection limit reached, aborting in /var/www/customers/vh-7192/web/home/phpvms/core/common/NOTAMSData.class.php on line 18

Warning: Invalid argument supplied for foreach() in /var/www/customers/vh-7192/web/home/phpvms/core/common/NOTAMSData.class.php on line 22

Auckland